createdAt,value
2016-09-10T00:00:16.603Z,17.2
2016-09-10T00:01:16.632Z,17.15
2016-09-10T00:02:16.651Z,17.16
2016-09-10T00:03:16.671Z,17.14
2016-09-10T00:04:16.688Z,17.15
2016-09-10T00:05:16.719Z,17.19
2016-09-10T00:06:16.735Z,17.09
2016-09-10T00:07:16.756Z,17.16
2016-09-10T00:08:16.775Z,17.16
2016-09-10T00:09:16.810Z,17.09
2016-09-10T00:10:16.820Z,17.12
2016-09-10T00:11:16.874Z,17.23
2016-09-10T00:12:16.857Z,17.11
2016-09-10T00:13:16.896Z,17.14
2016-09-10T00:14:17.263Z,17.15
2016-09-10T00:15:16.926Z,17.19
2016-09-10T00:16:17.017Z,17.15
2016-09-10T00:17:16.987Z,17.01
2016-09-10T00:18:17.005Z,17.14
2016-09-10T00:19:17.029Z,17.15
2016-09-10T00:20:17.041Z,17.14
2016-09-10T00:21:17.215Z,17.02
2016-09-10T00:22:17.104Z,17.02
2016-09-10T00:23:17.460Z,17.06
2016-09-10T00:24:17.580Z,17.01
2016-09-10T00:25:17.198Z,17.02
2016-09-10T00:26:17.160Z,17.02
2016-09-10T00:27:17.187Z,16.96
2016-09-10T00:28:17.214Z,16.96
2016-09-10T00:29:17.273Z,16.93
2016-09-10T00:30:17.284Z,16.94
2016-09-10T00:31:17.286Z,16.93
2016-09-10T00:32:17.292Z,16.89
2016-09-10T00:33:17.357Z,16.94
2016-09-10T00:34:17.334Z,16.94
2016-09-10T00:35:17.362Z,16.94
2016-09-10T00:36:17.374Z,16.87
2016-09-10T00:37:17.409Z,16.81
2016-09-10T00:38:17.421Z,16.78
2016-09-10T00:39:17.432Z,16.83
2016-09-10T00:40:17.464Z,16.75
2016-09-10T00:41:17.481Z,16.72
2016-09-10T00:42:17.508Z,16.75
2016-09-10T00:43:17.524Z,16.72
2016-09-10T00:44:17.547Z,16.79
2016-09-10T00:45:17.573Z,16.75
2016-09-10T00:46:17.589Z,16.66
2016-09-10T00:47:17.606Z,16.71
2016-09-10T00:48:17.629Z,16.68
2016-09-10T00:49:17.649Z,16.65
2016-09-10T00:50:17.672Z,16.68
2016-09-10T00:51:17.717Z,16.65
2016-09-10T00:52:17.932Z,16.65
2016-09-10T00:53:17.731Z,16.72
2016-09-10T00:54:17.747Z,16.69
2016-09-10T00:55:17.787Z,16.72
2016-09-10T00:56:17.797Z,16.76
2016-09-10T00:57:17.824Z,16.74
2016-09-10T00:58:18.170Z,16.72
2016-09-10T00:59:18.220Z,16.79
2016-09-10T01:00:18.290Z,16.81
2016-09-10T01:01:17.912Z,16.72
2016-09-10T01:02:17.951Z,16.89
2016-09-10T01:03:17.953Z,16.84
2016-09-10T01:04:17.968Z,16.87
2016-09-10T01:05:17.983Z,16.86
2016-09-10T01:06:18.333Z,16.87
2016-09-10T01:07:18.050Z,16.89
2016-09-10T01:08:18.074Z,16.9
2016-09-10T01:09:18.113Z,16.87
2016-09-10T01:10:18.094Z,16.89
2016-09-10T01:11:18.127Z,16.75
2016-09-10T01:12:18.135Z,16.89
2016-09-10T01:13:18.167Z,16.94
2016-09-10T01:14:18.188Z,16.97
2016-09-10T01:15:18.211Z,16.97
2016-09-10T01:16:18.259Z,16.93
2016-09-10T01:17:18.271Z,17.02
2016-09-10T01:18:18.272Z,16.96
2016-09-10T01:19:18.304Z,16.93
2016-09-10T01:20:18.306Z,16.96
2016-09-10T01:21:18.353Z,17.01
2016-09-10T01:22:18.345Z,16.99
2016-09-10T01:23:18.382Z,17.06
2016-09-10T01:24:18.390Z,17.02
2016-09-10T01:25:18.423Z,17.05
2016-09-10T01:26:18.763Z,17.02
2016-09-10T01:27:18.471Z,16.93
2016-09-10T01:28:18.501Z,17.05
2016-09-10T01:29:18.501Z,16.9
2016-09-10T01:30:18.514Z,16.99
2016-09-10T01:31:18.543Z,16.97
2016-09-10T01:32:18.555Z,16.93
2016-09-10T01:33:18.584Z,16.96
2016-09-10T01:34:18.604Z,17.05
2016-09-10T01:35:18.643Z,16.99
2016-09-10T01:36:18.645Z,17.05
2016-09-10T01:37:18.802Z,16.97
2016-09-10T01:38:18.704Z,16.93
2016-09-10T01:39:19.047Z,17.02
2016-09-10T01:40:18.734Z,17.08
2016-09-10T01:41:19.169Z,17.05
2016-09-10T01:42:18.790Z,17.02
2016-09-10T01:43:19.238Z,17.02
2016-09-10T01:44:19.130Z,17.01
2016-09-10T01:45:18.831Z,16.99
2016-09-10T01:46:18.904Z,17.04
2016-09-10T01:47:19.169Z,17.05
2016-09-10T01:48:18.906Z,17.06
2016-09-10T01:49:18.911Z,16.99
2016-09-10T01:50:18.935Z,16.99
2016-09-10T01:51:19.296Z,17.04
2016-09-10T01:52:19.316Z,16.99
2016-09-10T01:53:18.989Z,17.02
2016-09-10T01:54:19.062Z,16.99
2016-09-10T01:55:19.051Z,16.99
2016-09-10T01:56:19.203Z,17.08
2016-09-10T01:57:19.091Z,17.12
2016-09-10T01:58:19.115Z,17.01
2016-09-10T01:59:19.187Z,17.05
2016-09-10T02:00:19.155Z,17.06
2016-09-10T02:01:19.186Z,17.08
2016-09-10T02:02:19.192Z,17.05
2016-09-10T02:03:19.557Z,17.02
2016-09-10T02:04:19.261Z,17.06
2016-09-10T02:05:19.258Z,17.02
2016-09-10T02:06:19.291Z,17.01
2016-09-10T02:07:19.302Z,17.02
2016-09-10T02:08:19.322Z,17.04
2016-09-10T02:09:19.365Z,17.05
2016-09-10T02:10:19.382Z,16.97
2016-09-10T02:11:19.379Z,17.05
2016-09-10T02:12:19.396Z,17.01
2016-09-10T02:13:19.432Z,16.99
2016-09-10T02:14:19.450Z,16.94
2016-09-10T02:15:19.468Z,16.99
2016-09-10T02:16:19.480Z,16.94
2016-09-10T02:17:19.506Z,16.99
2016-09-10T02:18:19.536Z,16.9
2016-09-10T02:19:19.553Z,17.01
2016-09-10T02:20:19.582Z,17.02
2016-09-10T02:21:19.587Z,17.09
2016-09-10T02:22:19.619Z,17.06
2016-09-10T02:23:19.629Z,17.11
2016-09-10T02:24:20.017Z,17.09
2016-09-10T02:25:19.677Z,17.08
2016-09-10T02:26:19.697Z,17.04
2016-09-10T02:27:19.727Z,17.11
2016-09-10T02:28:19.762Z,17.05
2016-09-10T02:29:19.754Z,17.06
2016-09-10T02:30:19.873Z,16.99
2016-09-10T02:31:19.816Z,16.97
2016-09-10T02:32:19.908Z,17.06
2016-09-10T02:33:19.840Z,17.02
2016-09-10T02:34:19.910Z,16.99
2016-09-10T02:35:19.884Z,16.97
2016-09-10T02:36:19.966Z,17.01
2016-09-10T02:37:19.938Z,16.9
2016-09-10T02:38:19.973Z,17.06
2016-09-10T02:39:20.159Z,16.94
2016-09-10T02:40:20.013Z,16.96
2016-09-10T02:41:20.050Z,17.05
2016-09-10T02:42:20.050Z,17.01
2016-09-10T02:43:20.054Z,16.97
2016-09-10T02:44:20.099Z,17.06
2016-09-10T02:45:20.102Z,16.96
2016-09-10T02:46:20.120Z,16.93
2016-09-10T02:47:20.148Z,16.94
2016-09-10T02:48:20.176Z,16.91
2016-09-10T02:49:20.176Z,16.93
2016-09-10T02:50:20.272Z,16.96
2016-09-10T02:51:21.636Z,16.93
2016-09-10T02:52:20.362Z,16.89
2016-09-10T02:53:20.281Z,16.94
2016-09-10T02:54:20.288Z,16.9
2016-09-10T02:55:20.389Z,16.89
2016-09-10T02:56:20.698Z,16.83
2016-09-10T02:57:20.390Z,16.86
2016-09-10T02:58:20.368Z,16.86
2016-09-10T02:59:20.422Z,16.81
2016-09-10T03:00:20.474Z,16.87
2016-09-10T03:01:20.424Z,16.81
2016-09-10T03:02:20.472Z,16.74
2016-09-10T03:03:20.505Z,16.69
2016-09-10T03:04:20.496Z,16.74
2016-09-10T03:05:20.536Z,16.66
2016-09-10T03:06:20.550Z,16.56
2016-09-10T03:07:20.563Z,16.58
2016-09-10T03:08:20.916Z,16.49
2016-09-10T03:09:20.614Z,16.65
2016-09-10T03:10:20.621Z,16.46
2016-09-10T03:11:20.714Z,16.53
2016-09-10T03:12:20.665Z,16.49
2016-09-10T03:13:21.225Z,16.56
2016-09-10T03:14:20.719Z,16.64
2016-09-10T03:15:20.724Z,16.56
2016-09-10T03:16:20.749Z,16.46
2016-09-10T03:17:20.776Z,16.53
2016-09-10T03:18:20.896Z,16.39
2016-09-10T03:19:20.811Z,16.38
2016-09-10T03:20:20.869Z,16.47
2016-09-10T03:21:20.866Z,16.33
2016-09-10T03:22:20.880Z,16.36
2016-09-10T03:23:20.909Z,16.33
2016-09-10T03:24:20.918Z,16.35
2016-09-10T03:25:20.943Z,16.29
2016-09-10T03:26:20.971Z,16.28
2016-09-10T03:27:20.996Z,16.29
2016-09-10T03:28:20.997Z,16.2
2016-09-10T03:29:21.068Z,16.21
2016-09-10T03:30:21.052Z,16.16
2016-09-10T03:31:21.067Z,16.17
2016-09-10T03:32:21.100Z,16.21
2016-09-10T03:33:21.104Z,16.24
2016-09-10T03:34:21.129Z,16.24
2016-09-10T03:35:21.154Z,16.15
2016-09-10T03:36:21.167Z,16.21
2016-09-10T03:37:21.571Z,16.17
2016-09-10T03:38:21.211Z,16.2
2016-09-10T03:39:21.260Z,16.21
2016-09-10T03:40:21.259Z,16.15
2016-09-10T03:41:21.270Z,16.24
2016-09-10T03:42:21.315Z,16.23
2016-09-10T03:43:21.322Z,16.23
2016-09-10T03:44:21.677Z,16.17
2016-09-10T03:45:21.402Z,16.21
2016-09-10T03:46:21.382Z,16.15
2016-09-10T03:47:21.396Z,16.2
2016-09-10T03:48:21.418Z,16.15
2016-09-10T03:49:21.505Z,16.09
2016-09-10T03:50:21.462Z,16.16
2016-09-10T03:51:21.482Z,16.2
2016-09-10T03:52:21.509Z,16.05
2016-09-10T03:53:21.524Z,16.16
2016-09-10T03:54:21.539Z,16.08
2016-09-10T03:55:21.570Z,16.05
2016-09-10T03:56:21.580Z,16.12
2016-09-10T03:57:21.618Z,16.09
2016-09-10T03:58:21.625Z,16.09
2016-09-10T03:59:21.656Z,16.12
2016-09-10T04:00:21.674Z,16.1
2016-09-10T04:01:21.684Z,16.08
2016-09-10T04:02:21.699Z,16.09
2016-09-10T04:03:21.730Z,16.04
2016-09-10T04:04:21.761Z,16.12
2016-09-10T04:05:21.787Z,16.05
2016-09-10T04:06:21.895Z,16.13
2016-09-10T04:07:21.814Z,16.09
2016-09-10T04:08:21.833Z,16.1
2016-09-10T04:09:21.932Z,16.08
2016-09-10T04:10:21.940Z,16.09
2016-09-10T04:11:21.934Z,16.08
2016-09-10T04:12:22.042Z,16.16
2016-09-10T04:13:21.994Z,16.16
2016-09-10T04:14:21.999Z,16.15
2016-09-10T04:15:22.001Z,16.01
2016-09-10T04:16:22.002Z,16.05
2016-09-10T04:17:22.034Z,16.05
2016-09-10T04:18:22.044Z,16.08
2016-09-10T04:19:22.125Z,16.05
2016-09-10T04:20:22.107Z,16.04
2016-09-10T04:21:22.114Z,16.05
2016-09-10T04:22:22.317Z,16.05
2016-09-10T04:23:22.152Z,16.05
2016-09-10T04:24:22.165Z,16.09
2016-09-10T04:25:22.185Z,16.09
2016-09-10T04:26:22.210Z,16.05
2016-09-10T04:27:22.225Z,16.08
2016-09-10T04:28:22.249Z,16.04
2016-09-10T04:29:22.271Z,16.09
2016-09-10T04:30:22.289Z,16.12
2016-09-10T04:31:22.309Z,16.09
2016-09-10T04:32:22.672Z,16.02
2016-09-10T04:33:22.430Z,15.97
2016-09-10T04:34:22.431Z,16
2016-09-10T04:35:22.424Z,16.01
2016-09-10T04:36:22.427Z,16.01
2016-09-10T04:37:22.456Z,16.01
2016-09-10T04:38:22.461Z,16
2016-09-10T04:39:22.475Z,16.04
2016-09-10T04:40:22.495Z,15.95
2016-09-10T04:41:22.860Z,15.95
2016-09-10T04:42:22.532Z,15.97
2016-09-10T04:43:22.555Z,15.95
2016-09-10T04:44:22.594Z,16.02
2016-09-10T04:45:22.607Z,15.92
2016-09-10T04:46:22.616Z,16.01
2016-09-10T04:47:23.609Z,15.95
2016-09-10T04:48:22.725Z,16.02
2016-09-10T04:49:22.686Z,16.01
2016-09-10T04:50:22.696Z,16.01
2016-09-10T04:51:22.731Z,16
2016-09-10T04:52:22.753Z,15.94
2016-09-10T04:53:22.768Z,15.94
2016-09-10T04:54:22.788Z,15.94
2016-09-10T04:55:22.810Z,15.95
2016-09-10T04:56:22.829Z,16.01
2016-09-10T04:57:22.858Z,16.08
2016-09-10T04:58:22.864Z,16.04
2016-09-10T04:59:22.886Z,15.91
2016-09-10T05:00:22.918Z,15.95
2016-09-10T05:01:22.936Z,16.05
2016-09-10T05:02:22.985Z,16.08
2016-09-10T05:03:22.968Z,16.04
2016-09-10T05:04:23.014Z,15.98
2016-09-10T05:05:23.021Z,16.02
2016-09-10T05:06:23.139Z,16
2016-09-10T05:07:23.055Z,16
2016-09-10T05:08:23.091Z,16.01
2016-09-10T05:09:23.121Z,16.09
2016-09-10T05:10:23.129Z,16.04
2016-09-10T05:11:23.134Z,16.05
2016-09-10T05:12:23.195Z,16.01
2016-09-10T05:13:23.300Z,16.01
2016-09-10T05:14:23.234Z,16.01
2016-09-10T05:15:23.346Z,16.12
2016-09-10T05:16:23.323Z,16.05
2016-09-10T05:17:23.319Z,16.15
2016-09-10T05:18:23.298Z,16
2016-09-10T05:19:23.624Z,16.09
2016-09-10T05:20:23.322Z,16.09
2016-09-10T05:21:23.511Z,16.08
2016-09-10T05:22:23.437Z,16.12
2016-09-10T05:23:23.443Z,16.16
2016-09-10T05:24:23.464Z,16.23
2016-09-10T05:25:23.424Z,16.24
2016-09-10T05:26:23.439Z,16.2
2016-09-10T05:27:23.461Z,16.23
2016-09-10T05:28:23.813Z,16.28
2016-09-10T05:29:23.510Z,16.32
2016-09-10T05:30:23.892Z,16.38
2016-09-10T05:31:23.549Z,16.31
2016-09-10T05:32:23.570Z,16.38
2016-09-10T05:33:23.590Z,16.35
2016-09-10T05:34:23.611Z,16.41
2016-09-10T05:35:23.969Z,16.38
2016-09-10T05:36:23.708Z,16.38
2016-09-10T05:37:23.708Z,16.49
2016-09-10T05:38:23.692Z,16.47
2016-09-10T05:39:23.711Z,16.56
2016-09-10T05:40:23.735Z,16.57
2016-09-10T05:41:23.813Z,16.61
2016-09-10T05:42:23.811Z,16.47
2016-09-10T05:43:23.831Z,16.56
2016-09-10T05:44:23.834Z,16.61
2016-09-10T05:45:23.868Z,16.6
2016-09-10T05:46:23.859Z,16.75
2016-09-10T05:47:23.949Z,16.66
2016-09-10T05:48:24.001Z,16.75
2016-09-10T05:49:23.932Z,16.76
2016-09-10T05:50:23.940Z,16.84
2016-09-10T05:51:23.982Z,16.76
2016-09-10T05:52:23.988Z,16.86
2016-09-10T05:53:24.012Z,16.93
2016-09-10T05:54:24.030Z,16.93
2016-09-10T05:55:24.044Z,16.93
2016-09-10T05:56:24.066Z,16.99
2016-09-10T05:57:24.466Z,17.01
2016-09-10T05:58:24.427Z,17.09
2016-09-10T05:59:24.144Z,17.2
2016-09-10T06:00:24.227Z,17.27
2016-09-10T06:01:24.187Z,17.31
2016-09-10T06:02:24.289Z,17.36
2016-09-10T06:03:24.246Z,17.45
2016-09-10T06:04:24.254Z,17.51
2016-09-10T06:05:24.278Z,17.59
2016-09-10T06:06:24.289Z,17.65
2016-09-10T06:07:24.301Z,-39.99
2016-09-10T06:08:24.335Z,17.72
2016-09-10T06:09:24.359Z,17.85
2016-09-10T06:10:24.711Z,17.95
2016-09-10T06:11:24.429Z,17.98
2016-09-10T06:12:24.414Z,18.15
2016-09-10T06:13:24.438Z,18.23
2016-09-10T06:14:24.795Z,18.19
2016-09-10T06:15:24.878Z,18.33
2016-09-10T06:16:24.507Z,18.43
2016-09-10T06:17:24.528Z,18.37
2016-09-10T06:18:24.549Z,18.49
2016-09-10T06:19:24.579Z,18.49
2016-09-10T06:20:24.912Z,18.5
2016-09-10T06:21:24.598Z,18.65
2016-09-10T06:22:24.629Z,18.74
2016-09-10T06:23:24.658Z,18.75
2016-09-10T06:24:24.666Z,18.81
2016-09-10T06:25:24.690Z,18.86
2016-09-10T06:26:25.040Z,18.92
2016-09-10T06:27:24.742Z,18.95
2016-09-10T06:28:24.759Z,19.09
2016-09-10T06:29:24.785Z,19.07
2016-09-10T06:30:24.813Z,19
2016-09-10T06:31:24.829Z,19.18
2016-09-10T06:32:25.206Z,19.22
2016-09-10T06:33:24.878Z,19.36
2016-09-10T06:34:24.887Z,19.36
2016-09-10T06:35:24.910Z,19.37
2016-09-10T06:36:24.946Z,19.49
2016-09-10T06:37:24.958Z,19.59
2016-09-10T06:38:24.988Z,19.59
2016-09-10T06:39:24.998Z,19.64
2016-09-10T06:40:25.068Z,19.69
2016-09-10T06:41:25.047Z,19.74
2016-09-10T06:42:25.064Z,19.82
2016-09-10T06:43:25.175Z,19.85
2016-09-10T06:44:25.111Z,20.02
2016-09-10T06:45:25.142Z,20.03
2016-09-10T06:46:25.152Z,20.09
2016-09-10T06:47:25.186Z,20.22
2016-09-10T06:48:25.593Z,20.16
2016-09-10T06:49:25.231Z,20.24
2016-09-10T06:50:25.255Z,20.31
2016-09-10T06:51:25.595Z,20.34
2016-09-10T06:52:25.335Z,20.4
2016-09-10T06:53:25.311Z,20.5
2016-09-10T06:54:25.429Z,20.52
2016-09-10T06:55:25.366Z,20.59
2016-09-10T06:56:25.431Z,20.74
2016-09-10T06:57:25.419Z,20.75
2016-09-10T06:58:25.641Z,20.84
2016-09-10T06:59:25.768Z,20.93
2016-09-10T07:00:25.639Z,20.97
2016-09-10T07:01:25.501Z,21.03
2016-09-10T07:02:25.664Z,21.03
2016-09-10T07:03:25.543Z,21.12
2016-09-10T07:04:25.586Z,21.09
2016-09-10T07:05:25.611Z,21.18
2016-09-10T07:06:25.610Z,21.33
2016-09-10T07:07:25.962Z,21.35
2016-09-10T07:08:25.675Z,21.36
2016-09-10T07:09:25.674Z,21.5
2016-09-10T07:10:25.705Z,21.54
2016-09-10T07:11:25.720Z,21.6
2016-09-10T07:12:26.113Z,21.62
2016-09-10T07:13:25.816Z,21.69
2016-09-10T07:14:25.809Z,21.75
2016-09-10T07:15:25.814Z,21.72
2016-09-10T07:16:25.836Z,21.76
2016-09-10T07:17:25.865Z,21.79
2016-09-10T07:18:25.888Z,21.79
2016-09-10T07:19:26.140Z,21.91
2016-09-10T07:20:25.935Z,21.95
2016-09-10T07:21:25.967Z,22.06
2016-09-10T07:22:25.972Z,22.06
2016-09-10T07:23:26.024Z,22.1
2016-09-10T07:24:26.078Z,22.13
2016-09-10T07:25:26.396Z,22.14
2016-09-10T07:26:26.067Z,22.14
2016-09-10T07:27:26.437Z,22.18
2016-09-10T07:28:26.118Z,22.15
2016-09-10T07:29:26.142Z,22.28
2016-09-10T07:30:26.216Z,22.28
2016-09-10T07:31:26.291Z,22.36
2016-09-10T07:32:26.219Z,22.39
2016-09-10T07:33:26.243Z,22.44
2016-09-10T07:34:26.265Z,22.41
2016-09-10T07:35:26.290Z,22.36
2016-09-10T07:36:26.309Z,22.44
2016-09-10T07:37:26.340Z,22.43
2016-09-10T07:38:26.364Z,22.54
2016-09-10T07:39:26.397Z,22.6
2016-09-10T07:40:26.746Z,22.48
2016-09-10T07:41:26.434Z,22.54
2016-09-10T07:42:26.453Z,22.47
2016-09-10T07:43:26.471Z,22.48
2016-09-10T07:44:26.497Z,22.53
2016-09-10T07:45:26.521Z,22.59
2016-09-10T07:46:26.548Z,22.59
2016-09-10T07:47:26.601Z,22.78
2016-09-10T07:48:26.591Z,22.84
2016-09-10T07:49:26.648Z,22.76
2016-09-10T07:50:26.642Z,22.81
2016-09-10T07:51:26.661Z,22.93
2016-09-10T07:52:26.686Z,22.93
2016-09-10T07:53:26.715Z,22.94
2016-09-10T07:54:26.749Z,22.96
2016-09-10T07:55:26.774Z,23.08
2016-09-10T07:56:26.782Z,23.13
2016-09-10T07:58:26.852Z,23.12
2016-09-10T07:59:26.837Z,23.24
2016-09-10T08:00:27.197Z,23.31
2016-09-10T08:01:26.888Z,23.28
2016-09-10T08:02:27.264Z,23.46
2016-09-10T08:03:26.980Z,23.39
2016-09-10T08:04:26.962Z,23.44
2016-09-10T08:06:27.040Z,23.51
2016-09-10T08:10:27.952Z,23.59
2016-09-10T08:14:27.196Z,-39.99
2016-09-10T08:15:27.342Z,-39.99
2016-09-10T08:16:27.672Z,-39.99
2016-09-10T08:17:27.270Z,-39.99
2016-09-10T08:18:27.282Z,-39.99
2016-09-10T08:19:27.328Z,-39.99
2016-09-10T08:20:27.338Z,-39.99
2016-09-10T08:21:27.373Z,-39.99
2016-09-10T08:22:27.383Z,-39.99
2016-09-10T08:23:27.412Z,-39.99
2016-09-10T08:24:27.429Z,-39.99
2016-09-10T08:25:27.462Z,-39.99
2016-09-10T08:26:27.512Z,-39.99
2016-09-10T08:27:27.516Z,-39.99
2016-09-10T08:28:27.549Z,-39.99
2016-09-10T08:29:27.562Z,-39.99
2016-09-10T08:30:27.988Z,-39.99
2016-09-10T08:31:27.612Z,-39.99
2016-09-10T08:32:27.667Z,-39.99
2016-09-10T08:33:27.668Z,-39.99
2016-09-10T08:34:27.700Z,-39.99
2016-09-10T08:35:27.712Z,-39.99
2016-09-10T08:36:27.857Z,-39.99
2016-09-10T08:37:27.771Z,-39.99
2016-09-10T08:38:28.044Z,-39.99
2016-09-10T08:39:27.861Z,-39.99
2016-09-10T08:40:27.836Z,-39.99
2016-09-10T08:41:27.882Z,-39.99
2016-09-10T08:42:27.884Z,-39.99
2016-09-10T08:43:27.923Z,-39.99
2016-09-10T08:44:27.934Z,-39.99
2016-09-10T08:45:28.116Z,-39.99
2016-09-10T08:46:27.971Z,-39.99
2016-09-10T08:47:28.059Z,-39.99
2016-09-10T08:48:28.017Z,-39.99
2016-09-10T08:49:28.059Z,-39.99
2016-09-10T08:50:28.080Z,-39.99
2016-09-10T08:51:28.130Z,-39.99
2016-09-10T08:52:28.122Z,-39.99
2016-09-10T08:53:28.160Z,-39.99
2016-09-10T08:54:28.174Z,-39.99
2016-09-10T08:55:28.202Z,-39.99
2016-09-10T08:56:28.245Z,-39.99
2016-09-10T08:57:28.262Z,-39.99
2016-09-10T08:58:28.273Z,-39.99
2016-09-10T08:59:28.314Z,-39.99
2016-09-10T09:00:28.313Z,-39.99
2016-09-10T09:01:28.367Z,-39.99
2016-09-10T09:02:28.410Z,-39.99
2016-09-10T09:03:28.423Z,-39.99
2016-09-10T09:04:28.633Z,-39.99
2016-09-10T09:05:28.458Z,-39.99
2016-09-10T09:06:28.481Z,-39.99
2016-09-10T09:07:28.492Z,-39.99
2016-09-10T09:08:28.517Z,-39.99
2016-09-10T09:09:28.587Z,-39.99
2016-09-10T09:10:28.727Z,-39.99
2016-09-10T09:11:28.700Z,-39.99
2016-09-10T09:12:29.095Z,-39.99
2016-09-10T09:13:28.680Z,-39.99
2016-09-10T09:14:28.668Z,-39.99
2016-09-10T09:15:29.015Z,-39.99
2016-09-10T09:16:28.710Z,-39.99
2016-09-10T09:17:28.794Z,-39.99
2016-09-10T09:18:28.768Z,-39.99
2016-09-10T09:19:28.790Z,-39.99
2016-09-10T09:20:28.830Z,-39.99
2016-09-10T09:21:28.832Z,-39.99
2016-09-10T09:22:28.869Z,-39.99
2016-09-10T09:23:28.918Z,-39.99
2016-09-10T09:24:28.952Z,-39.99
2016-09-10T09:25:28.959Z,-39.99
2016-09-10T09:26:29.301Z,-39.99
2016-09-10T09:27:29.015Z,-39.99
2016-09-10T09:28:29.033Z,-39.99
2016-09-10T09:29:29.050Z,-39.99
2016-09-10T09:30:29.086Z,-39.99
2016-09-10T09:31:29.099Z,-39.99
2016-09-10T09:32:29.156Z,-39.99
2016-09-10T09:33:29.158Z,-39.99
2016-09-10T09:34:29.173Z,-39.99
2016-09-10T09:35:29.214Z,-39.99
2016-09-10T09:36:29.217Z,-39.99
2016-09-10T09:37:29.287Z,-39.99
2016-09-10T09:38:29.313Z,-39.99
2016-09-10T09:39:29.309Z,-39.99
2016-09-10T09:40:29.330Z,-39.99
2016-09-10T09:41:29.359Z,-39.99
